createdAt,value
2018-11-07T00:01:49.275Z,8.50
2018-11-07T00:04:18.592Z,8.61
2018-11-07T00:06:48.096Z,8.54
2018-11-07T00:09:17.767Z,8.56
2018-11-07T00:11:46.970Z,8.38
2018-11-07T00:14:27.456Z,8.46
2018-11-07T00:16:58.818Z,8.46
2018-11-07T00:19:30.072Z,8.50
2018-11-07T00:22:01.605Z,8.52
2018-11-07T00:24:33.393Z,8.63
2018-11-07T00:27:12.148Z,8.61
2018-11-07T00:29:43.137Z,8.52
2018-11-07T00:32:12.319Z,8.49
2018-11-07T00:34:42.401Z,8.50
2018-11-07T00:37:11.251Z,8.58
2018-11-07T00:39:40.274Z,8.64
2018-11-07T00:42:09.883Z,8.54
2018-11-07T00:44:38.740Z,8.56
2018-11-07T00:47:07.884Z,8.55
2018-11-07T00:49:37.654Z,8.56
2018-11-07T00:52:06.513Z,8.48
2018-11-07T00:54:36.512Z,8.48
2018-11-07T00:57:06.632Z,8.59
2018-11-07T00:59:35.866Z,8.43
2018-11-07T01:02:05.132Z,8.50
2018-11-07T01:04:34.378Z,8.58
2018-11-07T01:07:03.639Z,8.49
2018-11-07T01:09:33.142Z,8.56
2018-11-07T01:12:03.677Z,8.59
2018-11-07T01:14:33.523Z,8.55
2018-11-07T01:17:02.232Z,8.52
2018-11-07T01:19:31.518Z,8.58
2018-11-07T01:22:04.344Z,8.52
2018-11-07T01:24:37.059Z,8.58
2018-11-07T01:27:12.222Z,8.68
2018-11-07T01:29:44.931Z,8.70
2018-11-07T01:32:28.402Z,8.68
2018-11-07T01:35:13.817Z,8.60
2018-11-07T01:37:43.006Z,8.64
2018-11-07T01:40:13.350Z,8.68
2018-11-07T01:42:44.960Z,8.69
2018-11-07T01:45:15.600Z,8.75
2018-11-07T01:47:44.559Z,8.72
2018-11-07T01:50:14.341Z,8.66
2018-11-07T01:52:43.706Z,8.71
2018-11-07T01:55:13.614Z,8.76
2018-11-07T01:57:42.780Z,8.69
2018-11-07T02:00:13.181Z,8.78
2018-11-07T02:02:43.292Z,8.79
2018-11-07T02:05:17.662Z,8.78
2018-11-07T02:07:54.987Z,8.72
2018-11-07T02:10:28.476Z,8.71
2018-11-07T02:13:01.676Z,8.67
2018-11-07T02:15:34.360Z,8.73
2018-11-07T02:18:07.155Z,8.69
2018-11-07T02:20:43.408Z,8.75
2018-11-07T02:23:16.988Z,8.55
2018-11-07T02:25:54.612Z,8.52
2018-11-07T02:28:36.068Z,8.63
2018-11-07T02:31:09.252Z,8.59
2018-11-07T02:33:44.768Z,8.70
2018-11-07T02:36:19.469Z,8.76
2018-11-07T02:38:52.874Z,8.63
2018-11-07T02:41:28.749Z,8.75
2018-11-07T02:43:58.715Z,8.73
2018-11-07T02:46:28.041Z,8.62
2018-11-07T02:48:57.993Z,8.57
2018-11-07T02:51:28.097Z,8.59
2018-11-07T02:53:57.053Z,8.59
2018-11-07T02:56:26.139Z,8.63
2018-11-07T02:58:54.867Z,8.62
2018-11-07T03:01:25.268Z,8.62
2018-11-07T03:03:54.244Z,8.52
2018-11-07T03:06:23.470Z,8.54
2018-11-07T03:08:52.707Z,8.54
2018-11-07T03:11:21.731Z,8.45
2018-11-07T03:13:50.964Z,8.52
2018-11-07T03:16:20.449Z,8.53
2018-11-07T03:18:49.882Z,8.48
2018-11-07T03:21:19.556Z,8.50
2018-11-07T03:23:48.514Z,8.38
2018-11-07T03:26:17.694Z,8.38
2018-11-07T03:28:46.913Z,8.40
2018-11-07T03:31:16.219Z,8.33
2018-11-07T03:33:45.000Z,8.28
2018-11-07T03:36:14.734Z,8.33
2018-11-07T03:38:43.672Z,8.31
2018-11-07T03:41:13.729Z,8.32
2018-11-07T03:43:43.386Z,8.15
2018-11-07T03:46:12.931Z,8.13
2018-11-07T03:48:42.969Z,8.24
2018-11-07T03:51:12.337Z,8.14
2018-11-07T03:53:41.743Z,8.12
2018-11-07T03:56:11.796Z,8.11
2018-11-07T03:58:40.693Z,8.12
2018-11-07T04:01:11.063Z,8.16
2018-11-07T04:03:40.764Z,8.22
2018-11-07T04:06:09.878Z,8.19
2018-11-07T04:08:39.152Z,8.04
2018-11-07T04:11:08.155Z,8.14
2018-11-07T04:13:37.300Z,8.02
2018-11-07T04:16:06.097Z,8.02
2018-11-07T04:18:36.970Z,8.03
2018-11-07T04:21:06.028Z,8.05
2018-11-07T04:23:40.356Z,7.97
2018-11-07T04:26:22.598Z,8.04
2018-11-07T04:28:51.745Z,8.00
2018-11-07T04:31:21.188Z,7.93
2018-11-07T04:33:50.230Z,7.99
2018-11-07T04:36:19.090Z,7.95
2018-11-07T04:38:47.882Z,8.02
2018-11-07T04:41:17.556Z,7.99
2018-11-07T04:43:46.824Z,8.04
2018-11-07T04:46:16.138Z,8.06
2018-11-07T04:48:45.156Z,8.00
2018-11-07T04:51:14.781Z,7.85
2018-11-07T04:53:43.909Z,7.91
2018-11-07T04:56:13.982Z,7.96
2018-11-07T04:58:51.162Z,7.87
2018-11-07T05:01:20.232Z,7.90
2018-11-07T05:03:49.361Z,7.91
2018-11-07T05:06:22.691Z,7.88
2018-11-07T05:08:52.534Z,7.82
2018-11-07T05:11:22.125Z,7.88
2018-11-07T05:13:51.142Z,7.86
2018-11-07T05:16:20.004Z,7.82
2018-11-07T05:18:50.157Z,7.84
2018-11-07T05:21:19.849Z,7.77
2018-11-07T05:23:49.290Z,7.74
2018-11-07T05:26:24.135Z,7.78
2018-11-07T05:28:53.934Z,7.72
2018-11-07T05:31:23.807Z,7.75
2018-11-07T05:33:53.205Z,7.71
2018-11-07T05:36:22.181Z,7.60
2018-11-07T05:38:51.636Z,7.54
2018-11-07T05:41:21.441Z,7.57
2018-11-07T05:43:49.961Z,7.60
2018-11-07T05:46:19.542Z,7.60
2018-11-07T05:48:49.186Z,7.52
2018-11-07T05:51:18.504Z,7.62
2018-11-07T05:53:48.119Z,7.64
2018-11-07T05:56:17.932Z,7.69
2018-11-07T05:58:47.611Z,7.80
2018-11-07T06:01:17.277Z,7.92
2018-11-07T06:03:50.509Z,8.23
2018-11-07T06:06:20.039Z,8.10
2018-11-07T06:08:49.982Z,8.08
2018-11-07T06:11:19.535Z,8.21
2018-11-07T06:13:48.612Z,8.32
2018-11-07T06:16:17.645Z,8.30
2018-11-07T06:18:46.545Z,8.16
2018-11-07T06:21:16.238Z,7.93
2018-11-07T06:23:45.088Z,7.91
2018-11-07T06:26:14.475Z,7.86
2018-11-07T06:28:43.835Z,8.01
2018-11-07T06:31:13.797Z,8.20
2018-11-07T06:33:43.833Z,7.98
2018-11-07T06:36:12.816Z,8.07
2018-11-07T06:38:42.018Z,8.08
2018-11-07T06:41:11.457Z,7.94
2018-11-07T06:43:40.379Z,7.80
2018-11-07T06:46:10.155Z,7.88
2018-11-07T06:48:40.466Z,7.79
2018-11-07T06:51:09.936Z,7.74
2018-11-07T06:53:39.412Z,7.73
2018-11-07T06:56:08.422Z,7.70
2018-11-07T06:58:37.522Z,7.86
2018-11-07T07:01:06.488Z,7.57
2018-11-07T07:03:35.861Z,7.59
2018-11-07T07:06:04.467Z,7.85
2018-11-07T07:08:33.406Z,7.88
2018-11-07T07:11:03.929Z,7.95
2018-11-07T07:13:34.968Z,7.91
2018-11-07T07:16:05.025Z,7.81
2018-11-07T07:18:34.370Z,7.74
2018-11-07T07:21:03.730Z,7.77
2018-11-07T07:23:32.512Z,7.70
2018-11-07T07:26:01.868Z,7.88
2018-11-07T07:28:30.462Z,7.96
2018-11-07T07:30:59.639Z,7.90
2018-11-07T07:33:29.554Z,7.97
2018-11-07T07:35:59.748Z,7.78
2018-11-07T07:38:29.217Z,7.72
2018-11-07T07:40:59.014Z,7.65
2018-11-07T07:43:28.141Z,7.72
2018-11-07T07:45:57.260Z,7.54
2018-11-07T07:48:31.517Z,7.58
2018-11-07T07:51:04.648Z,7.64
2018-11-07T07:53:34.477Z,7.63
2018-11-07T07:56:03.454Z,7.54
2018-11-07T07:58:40.182Z,7.73
2018-11-07T08:01:17.812Z,7.89
2018-11-07T08:03:54.362Z,8.06
2018-11-07T08:06:26.757Z,8.26
2018-11-07T08:09:06.843Z,8.44
2018-11-07T08:11:37.364Z,8.63
2018-11-07T08:14:07.084Z,8.71
2018-11-07T08:16:36.003Z,8.78
2018-11-07T08:19:04.713Z,8.99
2018-11-07T08:21:33.555Z,8.96
2018-11-07T08:24:03.132Z,9.37
2018-11-07T08:26:32.618Z,9.38
2018-11-07T08:29:02.601Z,9.70
2018-11-07T08:31:31.737Z,9.69
2018-11-07T08:34:01.943Z,9.54
2018-11-07T08:36:33.158Z,9.38
2018-11-07T08:39:02.521Z,9.49
2018-11-07T08:41:31.936Z,9.57
2018-11-07T08:44:01.036Z,9.91
2018-11-07T08:46:51.307Z,9.85
2018-11-07T08:49:39.937Z,9.93
2018-11-07T08:52:22.400Z,10.14
2018-11-07T08:57:47.820Z,10.50
2018-11-07T09:00:32.142Z,10.60
2018-11-07T09:03:12.744Z,10.60
2018-11-07T09:08:29.019Z,10.93
2018-11-07T09:14:04.777Z,11.19
2018-11-07T09:16:33.857Z,11.28
2018-11-07T09:19:18.001Z,11.51
2018-11-07T09:21:50.808Z,11.86
2018-11-07T09:24:25.290Z,12.02
2018-11-07T09:26:54.196Z,12.32
2018-11-07T09:29:27.822Z,12.45
2018-11-07T09:31:59.332Z,12.34
2018-11-07T09:34:29.820Z,11.91
2018-11-07T09:37:00.665Z,12.09
2018-11-07T09:39:45.992Z,12.11
2018-11-07T09:42:14.894Z,12.49
2018-11-07T09:44:44.624Z,12.43
2018-11-07T09:47:14.331Z,12.62
2018-11-07T09:49:44.492Z,12.32
2018-11-07T09:52:17.916Z,12.28
2018-11-07T09:54:51.152Z,12.21
2018-11-07T09:57:33.475Z,12.43
2018-11-07T10:00:11.913Z,12.30
2018-11-07T10:02:55.445Z,12.82
2018-11-07T10:05:31.309Z,13.00
2018-11-07T10:08:09.717Z,13.24
2018-11-07T10:10:43.200Z,13.32
2018-11-07T10:13:18.628Z,13.06
2018-11-07T10:15:54.937Z,12.80
2018-11-07T10:18:27.364Z,12.67
2018-11-07T10:21:01.142Z,12.93
2018-11-07T10:23:39.732Z,13.28
2018-11-07T10:26:13.340Z,13.43
2018-11-07T10:28:47.236Z,13.51
2018-11-07T10:31:29.951Z,13.60
2018-11-07T10:34:01.853Z,13.81
2018-11-07T10:36:33.707Z,14.01
2018-11-07T10:39:04.160Z,14.17
2018-11-07T10:41:38.915Z,14.51
2018-11-07T10:44:07.711Z,14.70
2018-11-07T10:46:37.139Z,14.64
2018-11-07T10:49:08.544Z,14.73
2018-11-07T10:51:50.529Z,14.64
2018-11-07T10:54:25.230Z,14.66
2018-11-07T10:57:03.778Z,14.37
2018-11-07T10:59:34.874Z,14.42
2018-11-07T11:02:07.525Z,13.82
2018-11-07T11:04:36.482Z,14.18
2018-11-07T11:07:06.040Z,14.77
2018-11-07T11:09:35.316Z,15.03
2018-11-07T11:12:04.461Z,15.02
2018-11-07T11:14:33.641Z,15.17
2018-11-07T11:17:03.003Z,15.46
2018-11-07T11:19:31.851Z,15.54
2018-11-07T11:22:01.724Z,15.25
2018-11-07T11:24:31.328Z,15.25
2018-11-07T11:27:00.567Z,15.26
2018-11-07T11:29:29.570Z,15.24
2018-11-07T11:31:59.143Z,15.48
2018-11-07T11:34:28.651Z,15.61
2018-11-07T11:36:57.744Z,15.88
2018-11-07T11:39:27.087Z,16.04
2018-11-07T11:41:56.813Z,16.15
2018-11-07T11:44:26.346Z,15.99
2018-11-07T11:47:11.782Z,16.22
2018-11-07T11:49:40.584Z,16.34
2018-11-07T11:52:09.687Z,16.62
2018-11-07T11:54:39.425Z,16.94
2018-11-07T11:57:12.371Z,16.95
2018-11-07T11:59:50.805Z,16.83
2018-11-07T12:02:23.189Z,16.68
2018-11-07T12:05:01.584Z,16.69
2018-11-07T12:07:34.806Z,17.02
2018-11-07T12:10:04.343Z,17.26
2018-11-07T12:12:33.240Z,17.58
2018-11-07T12:15:02.786Z,17.84
2018-11-07T12:17:31.708Z,17.80
2018-11-07T12:20:00.529Z,17.86
2018-11-07T12:22:29.646Z,17.69
2018-11-07T12:24:58.865Z,17.80
2018-11-07T12:27:28.514Z,17.87
2018-11-07T12:29:57.968Z,18.43
2018-11-07T12:32:27.375Z,18.01
2018-11-07T12:34:56.657Z,18.66
2018-11-07T12:37:26.333Z,18.76
2018-11-07T12:39:55.876Z,18.67
2018-11-07T12:42:26.855Z,19.22
2018-11-07T12:44:56.105Z,19.56
2018-11-07T12:47:25.572Z,19.60
2018-11-07T12:49:54.792Z,19.43
2018-11-07T12:52:23.709Z,19.69
2018-11-07T12:54:53.252Z,19.60
2018-11-07T12:57:22.977Z,19.69
2018-11-07T12:59:51.721Z,19.89
2018-11-07T13:02:21.889Z,19.55
2018-11-07T13:04:50.524Z,19.77
2018-11-07T13:07:19.512Z,19.96
2018-11-07T13:09:48.892Z,20.08
2018-11-07T13:12:18.424Z,19.59
2018-11-07T13:14:47.849Z,19.73
2018-11-07T13:17:17.170Z,19.83
2018-11-07T13:19:46.840Z,19.47
2018-11-07T13:22:15.981Z,19.69
2018-11-07T13:24:45.442Z,20.26
2018-11-07T13:27:14.720Z,20.55
2018-11-07T13:29:43.962Z,20.79
2018-11-07T13:32:13.864Z,21.19
2018-11-07T13:34:42.728Z,20.93
2018-11-07T13:37:12.811Z,21.43
2018-11-07T13:39:41.692Z,20.83
2018-11-07T13:42:10.812Z,21.02
2018-11-07T13:44:40.605Z,20.70
2018-11-07T13:47:10.774Z,21.12
2018-11-07T13:49:40.477Z,21.40
2018-11-07T13:52:09.641Z,21.60
2018-11-07T13:54:39.092Z,21.59
2018-11-07T13:57:08.463Z,21.52
2018-11-07T13:59:37.596Z,21.35
2018-11-07T14:02:07.350Z,20.95
2018-11-07T14:04:36.954Z,21.81
2018-11-07T14:07:06.810Z,22.10
2018-11-07T14:09:36.197Z,21.90
2018-11-07T14:12:05.953Z,21.94
2018-11-07T14:14:34.620Z,21.60
2018-11-07T14:17:04.029Z,21.59
2018-11-07T14:19:33.467Z,20.85
2018-11-07T14:22:02.499Z,21.16
2018-11-07T14:24:33.287Z,21.01
2018-11-07T14:27:02.204Z,21.29
2018-11-07T14:29:31.539Z,22.23
2018-11-07T14:32:01.505Z,22.80
2018-11-07T14:34:35.696Z,21.87
2018-11-07T14:37:09.069Z,22.34
2018-11-07T14:43:00.788Z,21.39
2018-11-07T14:46:02.432Z,21.31
2018-11-07T14:48:36.566Z,21.26
2018-11-07T14:51:15.643Z,20.90
2018-11-07T14:53:59.877Z,20.56
2018-11-07T14:57:03.011Z,19.82
2018-11-07T14:59:45.016Z,19.25
2018-11-07T15:02:16.572Z,18.96
2018-11-07T15:04:47.040Z,19.03
2018-11-07T15:07:22.327Z,18.57
2018-11-07T15:10:01.938Z,18.50
2018-11-07T15:12:33.412Z,18.32
2018-11-07T15:15:05.491Z,18.16
2018-11-07T15:17:46.980Z,17.81
2018-11-07T15:20:18.592Z,17.66
2018-11-07T15:22:50.370Z,17.26
2018-11-07T15:25:19.251Z,16.98
2018-11-07T15:27:50.631Z,16.81
2018-11-07T15:30:19.890Z,16.96
2018-11-07T15:32:51.378Z,16.81
2018-11-07T15:35:22.244Z,16.68
2018-11-07T15:37:54.194Z,16.62
2018-11-07T15:40:34.674Z,16.57
2018-11-07T15:46:03.607Z,16.18
2018-11-07T15:48:46.238Z,16.12
2018-11-07T15:51:56.596Z,16.05
2018-11-07T15:54:36.059Z,16.07
2018-11-07T15:57:14.550Z,15.94
2018-11-07T15:59:52.960Z,15.80
2018-11-07T16:02:29.448Z,15.71
2018-11-07T16:05:03.101Z,15.52
2018-11-07T16:10:23.858Z,15.07
2018-11-07T16:12:55.829Z,15.03
2018-11-07T16:15:32.139Z,14.86
2018-11-07T16:18:07.841Z,14.60
2018-11-07T16:23:33.539Z,14.74
2018-11-07T16:26:07.976Z,14.51
2018-11-07T16:28:51.743Z,14.63
2018-11-07T16:31:33.092Z,14.78
2018-11-07T16:34:17.111Z,14.58
2018-11-07T16:36:52.508Z,14.32
2018-11-07T16:39:26.496Z,14.42
2018-11-07T16:42:13.207Z,14.32
2018-11-07T16:44:49.237Z,14.20
2018-11-07T16:47:21.688Z,14.24
2018-11-07T16:49:54.042Z,14.17
2018-11-07T16:52:34.012Z,14.20
2018-11-07T16:55:10.425Z,14.12
2018-11-07T16:57:44.064Z,14.29
2018-11-07T17:00:18.518Z,14.27
2018-11-07T17:02:50.575Z,14.10
2018-11-07T17:05:19.885Z,14.10
2018-11-07T17:07:55.871Z,14.04
2018-11-07T17:10:33.795Z,13.73
2018-11-07T17:13:11.489Z,13.34
2018-11-07T17:15:42.205Z,13.10
2018-11-07T17:18:13.148Z,13.18
2018-11-07T17:20:50.487Z,13.14
2018-11-07T17:23:23.470Z,13.13
2018-11-07T17:25:53.752Z,13.14
2018-11-07T17:28:28.194Z,13.29
2018-11-07T17:31:00.897Z,13.19
2018-11-07T17:33:32.334Z,13.25
2018-11-07T17:36:12.254Z,13.22
2018-11-07T17:39:03.814Z,13.36
2018-11-07T17:41:37.674Z,13.33
2018-11-07T17:44:11.036Z,13.34
2018-11-07T17:46:44.692Z,13.26
2018-11-07T17:49:17.869Z,13.26
2018-11-07T17:52:00.400Z,13.09
2018-11-07T17:54:41.039Z,13.10
2018-11-07T17:57:17.524Z,13.00
2018-11-07T17:59:52.202Z,12.82
2018-11-07T18:02:24.782Z,12.76
2018-11-07T18:05:05.311Z,12.47
2018-11-07T18:07:34.631Z,12.52
2018-11-07T18:10:11.438Z,12.66
2018-11-07T18:12:48.252Z,12.68
2018-11-07T18:15:19.923Z,12.86
2018-11-07T18:17:49.388Z,12.90
2018-11-07T18:20:18.420Z,12.92
2018-11-07T18:23:02.467Z,12.88
2018-11-07T18:25:40.731Z,12.73
2018-11-07T18:28:21.400Z,12.75
2018-11-07T18:30:58.677Z,12.72
2018-11-07T18:33:36.658Z,12.61
2018-11-07T18:36:26.084Z,12.71
2018-11-07T18:39:08.655Z,12.70
2018-11-07T18:41:46.036Z,12.75
2018-11-07T18:44:31.488Z,12.82
2018-11-07T18:47:12.222Z,12.71
2018-11-07T18:49:52.621Z,12.83
2018-11-07T18:52:27.500Z,12.93
2018-11-07T18:55:10.716Z,12.82
2018-11-07T18:57:53.045Z,12.85
2018-11-07T19:00:33.675Z,12.79
2018-11-07T19:03:11.696Z,12.69
2018-11-07T19:05:52.238Z,12.83
2018-11-07T19:08:38.698Z,12.79
2018-11-07T19:14:14.161Z,12.69
2018-11-07T19:16:55.252Z,12.76
2018-11-07T19:19:38.008Z,12.75
2018-11-07T19:22:14.606Z,12.72
2018-11-07T19:30:00.109Z,12.85
2018-11-07T19:32:39.845Z,12.80
2018-11-07T19:35:16.922Z,12.82
2018-11-07T19:37:55.932Z,12.87
2018-11-07T19:40:33.142Z,12.73
2018-11-07T19:43:10.788Z,12.82
2018-11-07T19:45:54.055Z,12.68
2018-11-07T19:48:31.450Z,12.70
2018-11-07T19:51:10.960Z,12.35
2018-11-07T19:53:47.803Z,12.24
2018-11-07T19:56:25.374Z,12.13
2018-11-07T19:59:02.530Z,12.20
2018-11-07T20:01:40.427Z,12.29
2018-11-07T20:04:23.428Z,12.12
2018-11-07T20:06:58.854Z,12.24
2018-11-07T20:09:40.623Z,12.08
2018-11-07T20:12:20.723Z,12.02
2018-11-07T20:14:53.108Z,12.12
2018-11-07T20:17:26.087Z,12.17
2018-11-07T20:19:58.792Z,12.19
2018-11-07T20:22:37.992Z,12.18
2018-11-07T20:25:17.609Z,12.07
2018-11-07T20:27:49.492Z,12.12
2018-11-07T20:30:22.513Z,12.16
2018-11-07T20:32:58.540Z,12.13
2018-11-07T20:35:29.692Z,12.17
2018-11-07T20:40:50.571Z,12.17
2018-11-07T20:43:23.399Z,12.26
2018-11-07T20:45:58.656Z,12.20
2018-11-07T20:48:29.853Z,12.05
2018-11-07T20:51:04.970Z,12.03
2018-11-07T20:53:44.595Z,11.95
2018-11-07T20:56:25.190Z,11.65
2018-11-07T20:59:00.088Z,11.79
2018-11-07T21:01:34.327Z,11.62
2018-11-07T21:04:05.728Z,11.60
2018-11-07T21:06:44.797Z,11.70
2018-11-07T21:09:23.791Z,11.78
2018-11-07T21:11:56.336Z,11.92
2018-11-07T21:14:28.659Z,11.79
2018-11-07T21:17:09.708Z,12.01
2018-11-07T21:19:41.485Z,11.99
2018-11-07T21:22:12.905Z,11.92
2018-11-07T21:24:47.038Z,11.83
2018-11-07T21:27:21.247Z,11.85
2018-11-07T21:29:54.386Z,11.60
2018-11-07T21:32:27.803Z,11.57
2018-11-07T21:35:00.522Z,11.47
2018-11-07T21:37:37.442Z,11.26
2018-11-07T21:40:13.210Z,11.09
2018-11-07T21:42:48.462Z,10.86
2018-11-07T21:45:19.178Z,10.81
2018-11-07T21:47:48.877Z,10.92
2018-11-07T21:50:19.181Z,10.99
2018-11-07T21:52:48.628Z,11.13
2018-11-07T21:55:17.620Z,11.04
2018-11-07T21:57:46.985Z,10.96
2018-11-07T22:00:18.593Z,10.98
2018-11-07T22:02:48.501Z,10.96
2018-11-07T22:05:18.344Z,11.02
2018-11-07T22:07:48.560Z,10.88
2018-11-07T22:10:18.372Z,10.85
2018-11-07T22:12:48.460Z,10.81
2018-11-07T22:15:17.421Z,10.73
2018-11-07T22:17:46.928Z,10.85
2018-11-07T22:20:19.643Z,10.73
2018-11-07T22:22:48.608Z,10.56
2018-11-07T22:25:17.795Z,10.66
2018-11-07T22:27:47.014Z,10.66
2018-11-07T22:30:17.209Z,10.59
2018-11-07T22:32:46.602Z,10.75
2018-11-07T22:35:18.074Z,10.71
2018-11-07T22:37:47.638Z,10.68
2018-11-07T22:40:18.092Z,10.52
2018-11-07T22:42:47.488Z,10.66
2018-11-07T22:45:16.813Z,10.64
2018-11-07T22:47:45.402Z,10.67
2018-11-07T22:50:15.856Z,10.72
2018-11-07T22:52:45.275Z,10.79
2018-11-07T22:55:14.696Z,10.93
2018-11-07T22:57:44.601Z,10.80
2018-11-07T23:00:20.510Z,10.94
2018-11-07T23:02:51.018Z,10.96
2018-11-07T23:05:20.162Z,11.29
2018-11-07T23:07:50.419Z,11.32
2018-11-07T23:10:19.569Z,11.10
2018-11-07T23:12:58.522Z,11.20
2018-11-07T23:15:38.984Z,11.21
2018-11-07T23:18:09.543Z,11.18
2018-11-07T23:20:41.618Z,11.03
2018-11-07T23:23:20.953Z,11.04
2018-11-07T23:25:56.656Z,11.07
2018-11-07T23:28:31.691Z,11.05
2018-11-07T23:31:07.636Z,10.94
2018-11-07T23:33:39.222Z,11.17
2018-11-07T23:36:08.928Z,11.21
2018-11-07T23:38:38.182Z,11.05
2018-11-07T23:41:07.432Z,11.14
2018-11-07T23:43:36.937Z,11.28
2018-11-07T23:46:06.851Z,11.12
2018-11-07T23:48:36.274Z,11.46
2018-11-07T23:51:06.121Z,11.35
2018-11-07T23:53:36.925Z,11.18
2018-11-07T23:56:06.277Z,11.14
2018-11-07T23:58:36.297Z,11.25
